Time;durP1;ratioP1;P1;durP2;ratioP2;P2;SDS_P1;SDS_P2;PMS_P1;PMS_P2;Temp;Humidity;BMP_temperature;BMP_pressure;BME280_temperature;BME280_humidity;BME280_pressure;Samples;Min_cycle;Max_cycle;Signal;HPM_P1;HPM_P2
2022/06/20 00:00:00;;;;;;;10.18;2.70;;;14.20;79.70;;;;;;5001868;28;20152;-72
2022/06/20 00:02:26;;;;;;;10.02;2.67;;;14.20;79.90;;;;;;5014425;28;20491;-73
2022/06/20 00:04:54;;;;;;;9.43;2.90;;;14.20;79.80;;;;;;5020747;28;20033;-72
2022/06/20 00:07:20;;;;;;;9.57;2.50;;;14.20;79.50;;;;;;5017597;28;20472;-72
2022/06/20 00:09:47;;;;;;;10.00;2.65;;;14.30;79.40;;;;;;5013795;28;20120;-72
2022/06/20 00:12:17;;;;;;;9.43;2.67;;;14.20;79.30;;;;;;5017814;28;20087;-72
2022/06/20 00:14:44;;;;;;;9.65;3.10;;;14.20;79.50;;;;;;5012488;28;20456;-72
2022/06/20 00:17:12;;;;;;;9.07;2.85;;;14.10;79.70;;;;;;5016789;28;20130;-72
2022/06/20 00:19:38;;;;;;;10.85;2.40;;;14.20;79.70;;;;;;5019573;28;20044;-72
2022/06/20 00:22:04;;;;;;;9.77;2.83;;;14.20;79.60;;;;;;5019270;28;20418;-72
2022/06/20 00:24:30;;;;;;;9.25;2.40;;;14.10;79.60;;;;;;5017118;28;20061;-72
2022/06/20 00:26:56;;;;;;;11.02;3.00;;;14.10;79.50;;;;;;5017604;28;20036;-72
2022/06/20 00:29:22;;;;;;;13.13;2.83;;;14.10;79.50;;;;;;5019118;28;20038;-72
2022/06/20 00:31:48;;;;;;;15.00;3.35;;;14.20;79.60;;;;;;5018949;28;20042;-72
2022/06/20 00:34:13;;;;;;;11.77;2.60;;;14.20;79.70;;;;;;4996688;28;20048;-72
2022/06/20 00:36:40;;;;;;;8.70;2.53;;;14.20;79.60;;;;;;5018696;28;20839;-72
2022/06/20 00:39:06;;;;;;;11.20;2.90;;;14.20;79.70;;;;;;5001512;28;20487;-72
2022/06/20 00:41:34;;;;;;;13.32;2.92;;;14.20;79.90;;;;;;5018940;28;20026;-72
2022/06/20 00:44:01;;;;;;;10.05;2.58;;;14.20;79.70;;;;;;5021791;28;20034;-71
2022/06/20 00:46:32;;;;;;;11.13;3.00;;;14.20;79.80;;;;;;5003211;28;20206;-72
2022/06/20 00:49:23;;;;;;;8.00;2.30;;;14.30;79.80;;;;;;5022963;28;20053;-72
2022/06/20 00:52:14;;;;;;;14.20;2.88;;;14.20;79.80;;;;;;5021004;28;20338;-72
2022/06/20 00:54:45;;;;;;;8.43;2.38;;;14.20;79.90;;;;;;5021950;28;20120;-72
2022/06/20 00:57:30;;;;;;;11.27;2.70;;;14.20;80.00;;;;;;5024354;28;20073;-72
2022/06/20 01:00:14;;;;;;;9.13;2.65;;;14.10;80.20;;;;;;5022329;28;20037;-72
2022/06/20 01:02:53;;;;;;;11.70;2.80;;;14.10;80.20;;;;;;5022970;28;20124;-72
2022/06/20 01:05:30;;;;;;;14.30;3.80;;;14.10;80.30;;;;;;5022580;28;20423;-72
2022/06/20 01:08:02;;;;;;;11.35;3.40;;;14.10;80.40;;;;;;5003242;28;20128;-72
2022/06/20 01:10:33;;;;;;;14.20;4.10;;;14.10;80.40;;;;;;5022213;28;20069;-72
2022/06/20 01:13:02;;;;;;;12.63;2.97;;;14.10;80.30;;;;;;5021327;28;20029;-72
2022/06/20 01:15:40;;;;;;;13.13;3.72;;;14.10;80.40;;;;;;5021614;28;20473;-72
2022/06/20 01:18:15;;;;;;;12.05;3.55;;;14.10;80.40;;;;;;5015763;28;20139;-72
2022/06/20 01:20:43;;;;;;;12.20;4.22;;;14.20;80.40;;;;;;5022636;28;20072;-72
2022/06/20 01:23:21;;;;;;;13.55;4.65;;;14.20;80.50;;;;;;5019262;28;20053;-72
2022/06/20 01:26:08;;;;;;;12.57;4.20;;;14.20;80.70;;;;;;5019470;28;20080;-72
2022/06/20 01:28:38;;;;;;;11.68;3.95;;;14.10;80.90;;;;;;5020342;28;20037;-72
2022/06/20 01:31:04;;;;;;;15.48;3.63;;;14.10;81.00;;;;;;5019473;28;20053;-72
2022/06/20 01:33:31;;;;;;;10.75;3.80;;;14.10;80.90;;;;;;5022478;28;20079;-72
2022/06/20 01:38:44;;;;;;;12.80;4.60;;;14.10;80.90;;;;;;5021127;28;20617;-72
2022/06/20 01:43:59;;;;;;;9.98;3.47;;;14.10;80.60;;;;;;5019068;28;20044;-72
2022/06/20 01:46:28;;;;;;;13.48;3.60;;;14.10;80.60;;;;;;5019337;28;20037;-72
2022/06/20 01:48:59;;;;;;;11.38;3.65;;;14.10;80.80;;;;;;5022161;28;20049;-72
2022/06/20 01:51:30;;;;;;;11.68;4.35;;;14.10;80.50;;;;;;5021689;28;20136;-72
2022/06/20 01:53:57;;;;;;;11.93;3.28;;;14.10;80.70;;;;;;5020861;28;20057;-72
2022/06/20 01:56:24;;;;;;;13.00;3.58;;;14.10;80.70;;;;;;5018814;28;20046;-72
2022/06/20 01:58:58;;;;;;;13.00;3.60;;;14.10;80.50;;;;;;5017872;28;20112;-72
2022/06/20 02:01:26;;;;;;;11.07;3.22;;;14.10;80.70;;;;;;5016575;28;20388;-72
2022/06/20 02:03:51;;;;;;;10.38;3.70;;;14.10;80.40;;;;;;5019078;28;20196;-72
2022/06/20 02:06:18;;;;;;;12.30;3.63;;;14.10;80.40;;;;;;5020934;28;20522;-72
2022/06/20 02:08:51;;;;;;;10.90;3.25;;;14.10;80.30;;;;;;5019906;28;20092;-72
2022/06/20 02:11:25;;;;;;;12.95;3.60;;;14.10;80.50;;;;;;5021206;28;20037;-72
2022/06/20 02:13:55;;;;;;;11.02;3.72;;;14.10;80.60;;;;;;5000960;28;20045;-72
2022/06/20 02:16:24;;;;;;;12.50;3.10;;;14.10;80.70;;;;;;5017241;28;20037;-71
2022/06/20 02:18:52;;;;;;;10.85;3.40;;;14.00;80.70;;;;;;5015537;28;20045;-72
2022/06/20 02:21:24;;;;;;;14.70;4.13;;;14.00;81.00;;;;;;5014708;28;20488;-72
2022/06/20 02:23:55;;;;;;;13.40;3.90;;;14.00;81.10;;;;;;4996541;28;20396;-72
2022/06/20 02:26:22;;;;;;;13.55;4.15;;;14.00;81.20;;;;;;5025605;28;20041;-72
2022/06/20 02:29:08;;;;;;;14.18;4.05;;;14.00;81.30;;;;;;5021593;28;20060;-72
2022/06/20 02:31:34;;;;;;;12.75;3.63;;;14.00;81.30;;;;;;5006023;28;20426;-72
2022/06/20 02:34:02;;;;;;;11.90;4.38;;;14.00;81.50;;;;;;5024524;28;20041;-72
2022/06/20 02:36:29;;;;;;;12.98;4.97;;;13.90;81.60;;;;;;5020060;28;20080;-72
2022/06/20 02:38:55;;;;;;;13.40;5.72;;;14.10;81.70;;;;;;5024375;28;20130;-72
2022/06/20 02:41:23;;;;;;;15.82;4.70;;;14.10;81.60;;;;;;5026030;28;21927;-72
2022/06/20 02:43:58;;;;;;;18.83;5.30;;;14.00;81.50;;;;;;5021704;28;20472;-72
2022/06/20 02:46:27;;;;;;;13.85;4.82;;;14.10;81.30;;;;;;5019535;28;20033;-72
2022/06/20 02:48:55;;;;;;;16.67;5.60;;;14.00;81.10;;;;;;5021534;28;20544;-72
2022/06/20 02:51:26;;;;;;;11.05;4.43;;;14.10;81.30;;;;;;5001877;28;20042;-72
2022/06/20 02:53:56;;;;;;;14.10;4.95;;;14.00;81.20;;;;;;5017913;28;20041;-72
2022/06/20 02:56:22;;;;;;;12.45;4.65;;;14.00;81.20;;;;;;5002387;28;20045;-72
2022/06/20 02:58:53;;;;;;;12.15;5.07;;;14.00;81.20;;;;;;5020153;28;20556;-72
2022/06/20 03:01:38;;;;;;;12.80;4.93;;;14.00;81.20;;;;;;5019104;28;20243;-72
2022/06/20 03:04:04;;;;;;;14.18;4.85;;;14.00;81.30;;;;;;5016712;28;20041;-72
2022/06/20 03:06:47;;;;;;;12.57;4.90;;;14.00;81.40;;;;;;5019315;28;20068;-72
2022/06/20 03:09:15;;;;;;;13.82;4.68;;;14.00;81.50;;;;;;5022587;28;20112;-72
2022/06/20 03:11:41;;;;;;;14.90;6.10;;;14.00;81.60;;;;;;5019965;28;20176;-72
2022/06/20 03:14:12;;;;;;;14.68;5.35;;;14.00;81.70;;;;;;5020272;28;20107;-72
2022/06/20 03:16:41;;;;;;;12.60;5.20;;;14.00;81.90;;;;;;5018387;28;20056;-72
2022/06/20 03:19:21;;;;;;;12.00;5.20;;;14.00;82.30;;;;;;4997370;28;20095;-72
2022/06/20 03:21:47;;;;;;;14.43;5.10;;;14.00;82.30;;;;;;5016517;28;20048;-72
2022/06/20 03:24:19;;;;;;;12.35;5.35;;;13.90;82.50;;;;;;5014687;28;20405;-72
2022/06/20 03:26:45;;;;;;;14.90;5.30;;;13.90;82.70;;;;;;5017824;28;20084;-72
2022/06/20 03:29:14;;;;;;;13.73;4.88;;;14.00;82.80;;;;;;5020508;28;20443;-72
2022/06/20 03:31:39;;;;;;;14.95;5.15;;;14.00;82.80;;;;;;5001156;28;20095;-72
2022/06/20 03:34:05;;;;;;;11.70;5.20;;;14.00;82.80;;;;;;5020770;28;20590;-72
2022/06/20 03:36:31;;;;;;;17.30;5.50;;;14.00;82.70;;;;;;5018117;28;20599;-72
2022/06/20 03:38:57;;;;;;;10.05;4.32;;;14.00;82.80;;;;;;5012713;28;20049;-72
2022/06/20 03:41:26;;;;;;;14.25;4.88;;;14.10;82.70;;;;;;5017770;28;20037;-72
2022/06/20 03:44:18;;;;;;;11.50;4.50;;;14.00;82.50;;;;;;5000387;28;20466;-72
2022/06/20 03:46:54;;;;;;;16.52;4.80;;;14.10;82.50;;;;;;5009103;28;20076;-72
2022/06/20 03:49:34;;;;;;;12.23;4.57;;;14.10;82.30;;;;;;5014938;28;20087;-72
2022/06/20 03:52:06;;;;;;;13.35;4.65;;;14.10;82.30;;;;;;5018274;28;20045;-72
2022/06/20 03:54:48;;;;;;;13.82;4.70;;;14.10;82.30;;;;;;5002355;28;20055;-72
2022/06/20 03:57:25;;;;;;;15.52;4.75;;;14.10;82.10;;;;;;5016492;28;20532;-72
2022/06/20 04:00:00;;;;;;;13.27;4.50;;;14.10;82.00;;;;;;5016556;28;20034;-72
2022/06/20 04:02:31;;;;;;;;;;;14.10;82.00;;;;;;5016894;28;20528;-72
2022/06/20 04:05:27;;;;;;;14.90;4.68;;;14.10;82.00;;;;;;5017118;28;19952;-72
2022/06/20 04:07:58;;;;;;;14.60;4.78;;;14.20;81.80;;;;;;5015947;28;20056;-72
2022/06/20 04:13:22;;;;;;;11.35;3.88;;;14.10;81.80;;;;;;5013748;28;20135;-72
2022/06/20 04:16:07;;;;;;;9.73;3.55;;;14.20;81.80;;;;;;5016959;28;20083;-73
2022/06/20 04:19:01;;;;;;;13.60;4.07;;;14.20;81.90;;;;;;5020394;28;20049;-72
2022/06/20 04:21:36;;;;;;;12.90;3.90;;;14.20;81.80;;;;;;5018468;28;20063;-72
2022/06/20 04:24:23;;;;;;;9.52;3.95;;;14.20;81.90;;;;;;5015394;28;20050;-73
2022/06/20 04:27:15;;;;;;;10.90;4.38;;;14.20;82.00;;;;;;4996647;28;20424;-72
2022/06/20 04:29:53;;;;;;;12.48;4.57;;;14.30;81.70;;;;;;5016773;28;20037;-73
2022/06/20 04:32:34;;;;;;;10.38;4.20;;;14.20;82.00;;;;;;5021514;28;20144;-72
2022/06/20 04:35:14;;;;;;;13.05;4.20;;;14.30;82.10;;;;;;5019387;28;20124;-72
2022/06/20 04:37:43;;;;;;;11.05;4.13;;;14.30;82.10;;;;;;5020182;28;20064;-72
2022/06/20 04:40:22;;;;;;;12.82;4.50;;;14.30;82.30;;;;;;5020548;28;20037;-72
2022/06/20 04:43:02;;;;;;;13.68;4.97;;;14.30;82.30;;;;;;5020232;28;20132;-72
2022/06/20 04:45:39;;;;;;;10.70;3.95;;;14.30;82.20;;;;;;5015389;28;20481;-72
2022/06/20 04:48:11;;;;;;;17.33;4.50;;;14.40;82.40;;;;;;5018226;28;20069;-72
2022/06/20 04:50:44;;;;;;;9.95;4.07;;;14.40;82.20;;;;;;5012585;28;20038;-72
2022/06/20 04:53:14;;;;;;;12.13;4.43;;;14.40;82.30;;;;;;5015683;28;20359;-72
2022/06/20 04:55:51;;;;;;;12.60;4.60;;;14.40;82.30;;;;;;5018222;28;20037;-72
2022/06/20 04:58:22;;;;;;;14.10;4.25;;;14.50;82.20;;;;;;5009338;28;20045;-72
2022/06/20 05:00:50;;;;;;;10.57;4.05;;;14.50;82.10;;;;;;5011258;28;20394;-72
2022/06/20 05:03:45;;;;;;;13.57;4.55;;;14.60;81.90;;;;;;5017968;28;20127;-72
2022/06/20 05:06:23;;;;;;;15.18;4.40;;;14.60;81.80;;;;;;5016131;28;20043;-72
2022/06/20 05:08:55;;;;;;;10.10;4.00;;;14.60;81.80;;;;;;5017611;28;20079;-72
2022/06/20 05:11:37;;;;;;;12.52;4.32;;;14.60;81.70;;;;;;5014317;28;20046;-72
2022/06/20 05:14:24;;;;;;;13.57;5.00;;;14.60;81.80;;;;;;5010584;28;20446;-72
2022/06/20 05:16:53;;;;;;;14.82;4.45;;;14.60;81.70;;;;;;5013525;28;20050;-71
2022/06/20 05:19:30;;;;;;;10.30;4.25;;;14.60;81.80;;;;;;5015836;28;20037;-71
2022/06/20 05:21:59;;;;;;;13.48;5.28;;;14.60;82.00;;;;;;5014522;28;20045;-73
2022/06/20 05:24:33;;;;;;;11.43;4.20;;;14.60;81.70;;;;;;5017866;28;20049;-71
2022/06/20 05:27:15;;;;;;;13.82;4.60;;;14.60;81.70;;;;;;5002701;28;20393;-72
2022/06/20 05:29:43;;;;;;;16.45;4.78;;;14.70;81.30;;;;;;5017301;28;20038;-71
2022/06/20 05:32:14;;;;;;;12.48;4.32;;;14.80;81.20;;;;;;5018118;28;20092;-72
2022/06/20 05:34:56;;;;;;;14.93;4.78;;;14.90;81.10;;;;;;5020146;28;20496;-72
2022/06/20 05:38:23;;;;;;;12.13;4.47;;;15.00;80.70;;;;;;5001520;28;20904;-72
2022/06/20 05:40:53;;;;;;;13.57;4.03;;;15.10;79.90;;;;;;4936867;28;20117;-72
2022/06/20 05:43:22;;;;;;;14.80;4.57;;;15.20;79.40;;;;;;5015449;28;20374;-73
2022/06/20 05:45:50;;;;;;;14.48;4.20;;;15.50;78.60;;;;;;5013833;28;20042;-72
2022/06/20 05:48:16;;;;;;;9.52;3.47;;;15.90;76.40;;;;;;5015361;28;20075;-72
2022/06/20 05:51:01;;;;;;;11.05;4.13;;;16.20;74.80;;;;;;5013380;28;20538;-72
2022/06/20 05:53:32;;;;;;;9.75;3.47;;;16.50;73.30;;;;;;5014522;28;20437;-74
2022/06/20 05:56:00;;;;;;;9.90;3.60;;;16.30;73.80;;;;;;5019784;28;20051;-77
2022/06/20 05:58:33;;;;;;;11.80;3.40;;;16.10;74.20;;;;;;5005984;28;20041;-76
2022/06/20 06:01:03;;;;;;;8.45;3.20;;;16.00;74.40;;;;;;5010626;28;20026;-75
2022/06/20 06:03:40;;;;;;;11.00;3.30;;;15.80;75.10;;;;;;5019265;28;20053;-77
2022/06/20 06:06:16;;;;;;;9.75;3.13;;;15.80;75.20;;;;;;5014868;28;20038;-75
2022/06/20 06:08:48;;;;;;;12.88;3.47;;;15.70;74.90;;;;;;5007193;28;20068;-76
2022/06/20 06:11:18;;;;;;;9.63;3.15;;;15.60;75.40;;;;;;5017225;28;20053;-76
2022/06/20 06:14:08;;;;;;;9.07;2.70;;;15.50;75.40;;;;;;5017756;28;20046;-75
2022/06/20 06:16:48;;;;;;;10.63;3.35;;;15.60;75.30;;;;;;5017333;28;20120;-76
2022/06/20 06:19:32;;;;;;;11.88;3.20;;;15.70;75.00;;;;;;5018208;28;20373;-76
2022/06/20 06:22:06;;;;;;;11.30;2.60;;;15.90;74.60;;;;;;5014427;28;20620;-75
2022/06/20 06:24:37;;;;;;;12.73;3.10;;;16.00;72.50;;;;;;5028083;28;20040;-77
2022/06/20 06:27:06;;;;;;;10.02;2.95;;;16.10;72.50;;;;;;5024156;28;20454;-76
2022/06/20 06:29:42;;;;;;;10.88;2.90;;;16.40;71.20;;;;;;5026855;28;20033;-84
2022/06/20 06:32:27;;;;;;;11.63;3.10;;;16.40;71.00;;;;;;5018801;28;20097;-75
2022/06/20 06:35:24;;;;;;;8.38;2.47;;;16.10;71.20;;;;;;5017162;28;20546;-75
2022/06/20 06:38:04;;;;;;;8.48;2.60;;;16.00;72.00;;;;;;5021817;28;20117;-76
2022/06/20 06:40:52;;;;;;;7.07;2.25;;;16.10;71.80;;;;;;5018380;28;20033;-78
2022/06/20 06:43:47;;;;;;;8.95;2.67;;;16.10;71.80;;;;;;5021465;28;20480;-77
2022/06/20 06:46:33;;;;;;;10.07;2.70;;;16.10;72.00;;;;;;5012818;28;20041;-80
2022/06/20 06:49:53;;;;;;;7.93;2.40;;;16.10;72.00;;;;;;5017161;28;20076;-79
2022/06/20 06:52:27;;;;;;;8.15;2.90;;;16.40;70.00;;;;;;4955410;28;20572;-80
2022/06/20 06:55:27;;;;;;;9.57;2.50;;;16.40;70.80;;;;;;4957480;28;20613;-77
2022/06/20 06:58:19;;;;;;;7.28;2.63;;;16.60;68.80;;;;;;5005445;28;20049;-80
2022/06/20 07:00:58;;;;;;;8.05;2.38;;;16.30;68.70;;;;;;5021265;28;20288;-78
2022/06/20 07:03:32;;;;;;;10.75;2.85;;;16.30;69.00;;;;;;5016284;28;20037;-76
2022/06/20 07:06:56;;;;;;;7.30;2.53;;;16.30;69.60;;;;;;5014822;28;20483;-79
2022/06/20 07:09:29;;;;;;;11.60;2.80;;;16.20;68.90;;;;;;4968046;28;20108;-78
2022/06/20 07:12:16;;;;;;;8.85;2.53;;;16.10;69.20;;;;;;5023237;28;20037;-76
2022/06/20 07:14:46;;;;;;;8.32;2.53;;;16.40;68.90;;;;;;5019496;28;20081;-85
2022/06/20 07:17:21;;;;;;;9.35;2.80;;;16.60;68.40;;;;;;5017734;28;20073;-81
2022/06/20 07:19:49;;;;;;;10.35;2.28;;;16.80;68.40;;;;;;5019476;28;20304;-79
2022/06/20 07:22:18;;;;;;;9.25;2.83;;;17.10;67.90;;;;;;5025639;28;20037;-76
2022/06/20 07:24:46;;;;;;;9.82;2.30;;;17.50;67.20;;;;;;5024120;28;20082;-80
2022/06/20 07:27:28;;;;;;;7.38;2.60;;;17.70;63.40;;;;;;5005738;28;20414;-81
2022/06/20 07:30:01;;;;;;;10.85;2.60;;;18.10;64.80;;;;;;5020873;28;20112;-77
2022/06/20 07:32:39;;;;;;;7.35;2.60;;;18.20;62.50;;;;;;5022955;28;20037;-81
2022/06/20 07:35:17;;;;;;;10.40;2.40;;;18.30;60.20;;;;;;5018634;28;20044;-76
2022/06/20 07:38:03;;;;;;;7.35;2.50;;;18.00;62.40;;;;;;5025125;28;20338;-79
2022/06/20 07:40:38;;;;;;;6.13;2.88;;;18.40;61.20;;;;;;5021509;28;20057;-80
2022/06/20 07:43:13;;;;;;;11.82;3.10;;;18.50;62.80;;;;;;5021238;28;20444;-79
2022/06/20 07:45:48;;;;;;;9.40;3.30;;;18.50;63.60;;;;;;5020176;28;20099;-79
2022/06/20 07:48:20;;;;;;;7.78;3.00;;;18.00;63.00;;;;;;5016642;28;20060;-77
2022/06/20 07:50:51;;;;;;;8.73;3.15;;;17.40;64.70;;;;;;5022756;28;20043;-85
2022/06/20 07:53:34;;;;;;;10.70;2.90;;;17.30;65.60;;;;;;5025743;28;20067;-79
2022/06/20 07:56:05;;;;;;;9.65;3.67;;;17.10;66.20;;;;;;5023251;28;20038;-79
2022/06/20 07:58:34;;;;;;;7.65;2.75;;;17.30;67.20;;;;;;5029441;28;20077;-79
2022/06/20 08:01:05;;;;;;;7.32;2.80;;;17.10;66.20;;;;;;5024364;28;20042;-81
2022/06/20 08:03:48;;;;;;;7.30;3.17;;;17.30;65.40;;;;;;5015439;28;20037;-77
2022/06/20 08:06:42;;;;;;;7.72;3.55;;;17.30;65.10;;;;;;5024723;28;20065;-78
2022/06/20 08:09:18;;;;;;;7.60;2.75;;;17.50;64.90;;;;;;5024451;28;20081;-76
2022/06/20 08:11:45;;;;;;;7.47;2.63;;;17.80;60.70;;;;;;5007095;28;20064;-77
2022/06/20 08:14:28;;;;;;;7.93;3.25;;;18.20;59.60;;;;;;5006898;28;20037;-76
2022/06/20 08:16:57;;;;;;;8.80;3.15;;;18.20;61.00;;;;;;5019686;28;20045;-80
2022/06/20 08:19:23;;;;;;;15.52;3.60;;;18.50;60.70;;;;;;5025886;28;20029;-76
2022/06/20 08:21:57;;;;;;;22.20;4.68;;;18.60;59.20;;;;;;5019388;28;20053;-76
2022/06/20 08:24:27;;;;;;;5.95;2.60;;;18.80;60.20;;;;;;5010596;28;20115;-79
2022/06/20 08:27:07;;;;;;;8.23;2.65;;;18.90;54.80;;;;;;5023807;28;20144;-77
2022/06/20 08:30:03;;;;;;;10.27;2.90;;;18.60;57.60;;;;;;5028377;28;20714;-81
2022/06/20 08:32:43;;;;;;;10.30;3.45;;;18.90;58.30;;;;;;5006679;28;20029;-79
2022/06/20 08:35:16;;;;;;;11.18;2.40;;;19.30;59.30;;;;;;5026181;28;20099;-78
2022/06/20 08:37:49;;;;;;;6.63;2.22;;;19.40;54.60;;;;;;5015471;28;20072;-78
2022/06/20 08:40:32;;;;;;;9.15;2.88;;;19.10;55.30;;;;;;5021615;28;20085;-77
2022/06/20 08:43:10;;;;;;;6.75;2.63;;;19.30;53.70;;;;;;5032795;28;20138;-80
2022/06/20 08:46:08;;;;;;;8.30;2.53;;;19.20;53.90;;;;;;5017225;28;20048;-76
2022/06/20 08:48:46;;;;;;;9.02;2.70;;;19.50;53.70;;;;;;5005091;28;20407;-80
2022/06/20 08:51:23;;;;;;;7.82;2.63;;;19.40;55.80;;;;;;5021622;28;20542;-78
2022/06/20 08:54:33;;;;;;;7.80;3.03;;;19.60;56.40;;;;;;5027407;28;20049;-81
2022/06/20 08:57:14;;;;;;;9.93;2.90;;;19.60;55.90;;;;;;5014991;28;20037;-77
2022/06/20 09:00:00;;;;;;;35.85;6.88;;;19.70;56.30;;;;;;5022045;28;20044;-75
2022/06/20 09:02:44;;;;;;;8.52;3.05;;;19.10;57.30;;;;;;5025291;28;20472;-83
2022/06/20 09:05:24;;;;;;;10.53;3.20;;;18.70;58.00;;;;;;5024124;28;20057;-75
2022/06/20 09:08:25;;;;;;;9.43;3.05;;;18.60;58.50;;;;;;5019788;28;20071;-81
2022/06/20 09:11:28;;;;;;;10.82;3.33;;;18.70;58.90;;;;;;5016797;28;20037;-78
2022/06/20 09:14:34;;;;;;;12.68;3.50;;;19.40;57.90;;;;;;5013188;28;20037;-79
2022/06/20 09:17:21;;;;;;;8.13;3.20;;;19.80;56.00;;;;;;5016894;28;20075;-77
2022/06/20 09:19:50;;;;;;;7.28;2.85;;;20.10;56.30;;;;;;5018739;28;20057;-76
2022/06/20 09:23:07;;;;;;;8.43;3.00;;;19.90;54.40;;;;;;5011363;28;20125;-79
2022/06/20 09:26:03;;;;;;;7.53;2.88;;;19.60;53.70;;;;;;4984729;28;20384;-76
2022/06/20 09:28:46;;;;;;;9.10;3.45;;;19.80;55.10;;;;;;5003328;28;20562;-76
2022/06/20 09:31:45;;;;;;;8.95;2.95;;;20.20;53.20;;;;;;5026407;28;20044;-78
2022/06/20 09:34:48;;;;;;;8.27;2.97;;;20.80;51.10;;;;;;5003428;28;20132;-76
2022/06/20 09:37:22;;;;;;;9.45;2.72;;;20.80;48.80;;;;;;5017048;28;20057;-77
2022/06/20 09:40:25;;;;;;;7.68;2.60;;;21.00;50.80;;;;;;5026100;28;20060;-78
2022/06/20 09:43:14;;;;;;;8.70;3.03;;;20.70;50.60;;;;;;5024229;28;20025;-77
2022/06/20 09:45:58;;;;;;;7.18;2.45;;;20.10;52.40;;;;;;5023673;28;20054;-77
2022/06/20 09:48:49;;;;;;;9.10;2.88;;;20.10;52.90;;;;;;5025667;28;20033;-78
2022/06/20 09:51:36;;;;;;;11.02;3.58;;;20.40;53.80;;;;;;5018852;28;20041;-75
2022/06/20 09:54:21;;;;;;;8.20;2.80;;;20.00;54.40;;;;;;5019802;28;20476;-77
2022/06/20 09:56:59;;;;;;;;;;;19.90;54.30;;;;;;5021857;28;20056;-78
2022/06/20 09:59:51;;;;;;;9.60;3.90;;;19.90;54.40;;;;;;5023438;28;19949;-77
2022/06/20 10:02:46;;;;;;;10.27;2.88;;;19.80;54.60;;;;;;5024484;28;20088;-76
2022/06/20 10:05:42;;;;;;;9.52;3.30;;;20.20;54.50;;;;;;5020773;28;20036;-82
2022/06/20 10:08:19;;;;;;;8.70;3.00;;;20.30;51.30;;;;;;5017331;28;20037;-80
2022/06/20 10:10:54;;;;;;;9.40;3.42;;;20.70;52.70;;;;;;5022351;28;20140;-86
2022/06/20 10:13:31;;;;;;;8.50;2.80;;;21.10;50.60;;;;;;5022689;28;20038;-77
2022/06/20 10:16:28;;;;;;;8.80;2.40;;;21.50;48.90;;;;;;5014742;28;20064;-82
2022/06/20 10:19:24;;;;;;;9.80;2.92;;;21.60;49.30;;;;;;5015506;28;20053;-76
2022/06/20 10:22:06;;;;;;;8.43;2.58;;;20.90;48.60;;;;;;5014388;28;20107;-77
2022/06/20 10:24:45;;;;;;;9.70;2.72;;;20.40;51.40;;;;;;5022693;28;20448;-77
2022/06/20 10:27:43;;;;;;;6.75;2.65;;;20.20;52.10;;;;;;5017243;28;20046;-77
2022/06/20 10:30:26;;;;;;;9.25;3.17;;;20.30;52.90;;;;;;5004218;28;20421;-81
2022/06/20 10:32:56;;;;;;;6.85;2.72;;;20.30;54.20;;;;;;5020316;28;20117;-82
2022/06/20 10:35:33;;;;;;;9.13;2.88;;;20.30;52.90;;;;;;5014785;28;20046;-77
2022/06/20 10:38:08;;;;;;;8.15;2.83;;;20.00;52.80;;;;;;5020576;28;20148;-79
2022/06/20 10:41:06;;;;;;;13.50;3.00;;;20.40;52.40;;;;;;5020232;28;20041;-79
2022/06/20 10:43:46;;;;;;;7.88;2.72;;;19.80;52.60;;;;;;5001239;28;20059;-83
2022/06/20 10:46:40;;;;;;;9.02;2.70;;;20.10;53.00;;;;;;5020979;28;20025;-77
2022/06/20 10:49:20;;;;;;;7.60;2.73;;;20.70;51.30;;;;;;5018279;28;20357;-77
2022/06/20 10:52:01;;;;;;;8.13;2.30;;;20.80;49.10;;;;;;4994987;28;20152;-84
2022/06/20 10:54:55;;;;;;;9.45;3.05;;;21.30;49.60;;;;;;5016593;28;20030;-77
2022/06/20 10:57:43;;;;;;;7.77;2.37;;;21.00;48.00;;;;;;5016858;28;20428;-77
2022/06/20 11:00:15;;;;;;;9.50;2.40;;;20.90;48.80;;;;;;5012790;28;20037;-80
2022/06/20 11:02:59;;;;;;;8.40;2.97;;;21.00;50.80;;;;;;5000228;28;20140;-77
2022/06/20 11:05:32;;;;;;;9.63;2.90;;;21.10;50.60;;;;;;4992177;28;20045;-78
2022/06/20 11:08:16;;;;;;;9.55;2.70;;;21.10;50.40;;;;;;5013314;28;20053;-77
2022/06/20 11:10:55;;;;;;;8.40;2.60;;;20.50;50.80;;;;;;5010584;28;20116;-78
2022/06/20 11:13:42;;;;;;;7.22;2.55;;;20.30;49.80;;;;;;5012971;28;20042;-79
2022/06/20 11:16:20;;;;;;;8.02;2.85;;;20.40;50.60;;;;;;5019238;28;20041;-79
2022/06/20 11:18:59;;;;;;;5.65;2.38;;;21.00;48.70;;;;;;5006426;28;20417;-78
2022/06/20 11:22:02;;;;;;;5.28;2.05;;;21.70;47.50;;;;;;5013513;28;20045;-81
2022/06/20 11:24:47;;;;;;;7.60;2.50;;;21.30;45.70;;;;;;5015346;28;20599;-80
2022/06/20 11:27:31;;;;;;;;;;;21.30;46.70;;;;;;5015446;28;20099;-78
2022/06/20 11:29:57;;;;;;;6.57;2.20;;;20.90;50.90;;;;;;4997130;28;20609;-81
2022/06/20 11:32:23;;;;;;;6.22;2.53;;;20.90;50.00;;;;;;5015027;28;20050;-81
2022/06/20 11:34:51;;;;;;;6.40;2.30;;;20.80;50.30;;;;;;5012185;28;20554;-78
2022/06/20 11:37:36;;;;;;;6.00;2.20;;;21.10;49.60;;;;;;5014134;28;20068;-82
2022/06/20 11:40:25;;;;;;;8.93;2.42;;;21.40;47.00;;;;;;5018108;28;20358;-78
2022/06/20 11:43:08;;;;;;;8.20;2.58;;;21.60;46.20;;;;;;5016918;28;20030;-78
2022/06/20 11:45:51;;;;;;;7.30;2.55;;;21.80;47.10;;;;;;5015373;28;20257;-78
2022/06/20 11:48:25;;;;;;;6.57;2.22;;;21.80;47.20;;;;;;5020056;28;20040;-78
2022/06/20 11:51:02;;;;;;;7.57;2.65;;;20.80;47.40;;;;;;4999669;28;20496;-80
2022/06/20 11:53:40;;;;;;;7.32;2.30;;;20.90;47.40;;;;;;5019739;28;20086;-79
2022/06/20 11:56:29;;;;;;;7.05;2.53;;;20.90;48.70;;;;;;5003794;28;20073;-80
2022/06/20 11:59:05;;;;;;;6.70;2.53;;;20.80;49.30;;;;;;5002914;28;20117;-77
2022/06/20 12:01:43;;;;;;;9.25;2.53;;;20.70;50.30;;;;;;5000969;28;20037;-81
2022/06/20 12:04:16;;;;;;;6.72;2.25;;;21.10;48.00;;;;;;5012008;28;21399;-78
2022/06/20 12:07:00;;;;;;;11.20;3.00;;;21.70;49.20;;;;;;4996703;28;20064;-79
2022/06/20 12:09:44;;;;;;;7.38;2.15;;;22.00;46.00;;;;;;5019243;28;20124;-78
2022/06/20 12:12:34;;;;;;;8.18;2.50;;;21.30;47.20;;;;;;5019014;28;20072;-80
2022/06/20 12:15:28;;;;;;;7.05;2.63;;;20.90;49.50;;;;;;5017918;28;20068;-81
2022/06/20 12:18:12;;;;;;;8.98;2.50;;;21.10;49.30;;;;;;5006719;28;20049;-78
2022/06/20 12:23:37;;;;;;;9.20;2.33;;;21.00;50.00;;;;;;5020943;28;20123;-79
2022/06/20 12:26:09;;;;;;;5.93;2.80;;;21.10;49.10;;;;;;5020227;28;20500;-80
2022/06/20 12:28:41;;;;;;;12.95;2.92;;;20.70;48.70;;;;;;5017194;28;20045;-79
2022/06/20 12:31:24;;;;;;;8.82;2.33;;;21.00;48.10;;;;;;5016046;28;20041;-81
2022/06/20 12:33:54;;;;;;;7.75;2.67;;;21.50;48.10;;;;;;5015788;28;20049;-79
2022/06/20 12:36:55;;;;;;;9.55;2.38;;;21.60;48.10;;;;;;5014506;28;20045;-79
2022/06/20 12:39:27;;;;;;;7.30;2.28;;;21.30;49.20;;;;;;5019481;28;20153;-77
2022/06/20 12:41:57;;;;;;;6.60;2.58;;;21.60;47.70;;;;;;5021698;28;20040;-83
2022/06/20 12:44:47;;;;;;;6.97;2.40;;;21.80;47.10;;;;;;5021365;28;20155;-82
2022/06/20 12:47:28;;;;;;;9.07;3.30;;;21.90;47.10;;;;;;5016246;28;20552;-75
2022/06/20 12:50:17;;;;;;;9.93;2.47;;;21.10;48.10;;;;;;5022006;28;20045;-78
2022/06/20 12:53:20;;;;;;;7.13;2.60;;;21.10;49.80;;;;;;5009643;28;20088;-79
2022/06/20 12:56:14;;;;;;;9.85;3.22;;;21.40;48.10;;;;;;5009024;28;20500;-81
2022/06/20 12:59:12;;;;;;;7.70;2.88;;;22.00;47.20;;;;;;5009721;28;20442;-80
2022/06/20 13:02:04;;;;;;;9.35;2.97;;;21.70;46.40;;;;;;5024350;28;20103;-81
2022/06/20 13:05:00;;;;;;;12.40;3.38;;;21.40;49.60;;;;;;5019378;28;20083;-83
2022/06/20 13:07:52;;;;;;;11.43;3.80;;;21.10;52.00;;;;;;5024031;28;20133;-77
2022/06/20 13:10:48;;;;;;;10.63;3.10;;;21.50;49.90;;;;;;5019453;28;20029;-76
2022/06/20 13:13:36;;;;;;;11.20;3.65;;;21.40;50.50;;;;;;5014272;28;20068;-79
2022/06/20 13:16:32;;;;;;;10.63;3.40;;;21.70;48.10;;;;;;5021565;28;20057;-78
2022/06/20 13:19:28;;;;;;;8.63;3.03;;;21.90;48.10;;;;;;5019606;28;20037;-78
2022/06/20 13:22:11;;;;;;;10.30;3.13;;;22.10;47.70;;;;;;5012998;28;20091;-78
2022/06/20 13:25:14;;;;;;;9.10;3.13;;;21.30;47.80;;;;;;5019889;28;20152;-78
2022/06/20 13:28:08;;;;;;;7.80;3.10;;;20.90;49.00;;;;;;5020806;28;20042;-79
2022/06/20 13:31:06;;;;;;;10.63;3.50;;;21.00;50.70;;;;;;5020400;28;20041;-79
2022/06/20 13:33:52;;;;;;;11.90;3.42;;;21.40;50.20;;;;;;5012578;28;20056;-79
2022/06/20 13:36:20;;;;;;;10.77;3.38;;;21.80;50.40;;;;;;5026050;28;20030;-78
2022/06/20 13:39:03;;;;;;;9.43;3.10;;;22.10;49.40;;;;;;5028337;28;20045;-82
2022/06/20 13:41:33;;;;;;;11.60;4.20;;;22.10;48.10;;;;;;5022712;28;20046;-77
2022/06/20 13:44:17;;;;;;;8.15;2.88;;;22.20;46.50;;;;;;5020348;28;20037;-76
2022/06/20 13:47:17;;;;;;;11.60;3.97;;;22.10;49.00;;;;;;5016511;28;20519;-84
2022/06/20 13:50:10;;;;;;;12.00;3.35;;;21.70;49.60;;;;;;5015023;28;20029;-78
2022/06/20 13:52:47;;;;;;;15.65;3.78;;;21.40;48.70;;;;;;5016731;28;20034;-79